Time;durP1;ratioP1;P1;durP2;ratioP2;P2;SDS_P1;SDS_P2;PMS_P1;PMS_P2;Temp;Humidity;BMP_temperature;BMP_pressure;BME280_temperature;BME280_humidity;BME280_pressure;Samples;Min_cycle;Max_cycle;Signal;HPM_P1;HPM_P2
2023/01/20 00:02:10;;;;;;;7.00;4.57;;;-1.90;99.90;;;;;;5048478;28;20189;-60
2023/01/20 00:04:36;;;;;;;5.10;3.37;;;-1.90;99.90;;;;;;5040069;28;20204;-60
2023/01/20 00:07:01;;;;;;;8.00;5.50;;;-1.90;99.90;;;;;;5043125;28;20201;-60
2023/01/20 00:09:27;;;;;;;5.70;4.10;;;-1.90;99.90;;;;;;5042107;28;20726;-59
2023/01/20 00:11:52;;;;;;;6.97;4.17;;;-1.90;99.90;;;;;;5045694;28;20594;-60
2023/01/20 00:14:18;;;;;;;7.57;4.47;;;-1.90;99.90;;;;;;5039047;28;20176;-60
2023/01/20 00:16:44;;;;;;;8.07;4.70;;;-1.90;99.90;;;;;;5039436;28;20221;-60
2023/01/20 00:19:13;;;;;;;7.03;3.83;;;-1.90;99.90;;;;;;5049233;28;20271;-60
2023/01/20 00:21:39;;;;;;;4.60;2.90;;;-1.90;99.90;;;;;;5045375;28;20180;-60
2023/01/20 00:24:05;;;;;;;6.00;4.17;;;-1.90;99.90;;;;;;5047800;28;20436;-60
2023/01/20 00:26:31;;;;;;;5.67;3.70;;;-1.90;99.90;;;;;;5048768;28;20878;-60
2023/01/20 00:28:57;;;;;;;7.93;4.07;;;-2.00;99.90;;;;;;5042420;28;20538;-60
2023/01/20 00:31:28;;;;;;;6.70;4.30;;;-2.00;99.90;;;;;;5040919;28;20195;-60
2023/01/20 00:33:56;;;;;;;7.70;4.90;;;-1.90;99.90;;;;;;5043622;28;20177;-60
2023/01/20 00:36:23;;;;;;;10.27;3.67;;;-1.90;99.90;;;;;;5047999;28;20451;-60
2023/01/20 00:38:49;;;;;;;8.53;3.60;;;-1.90;99.90;;;;;;5046280;28;20522;-60
2023/01/20 00:41:15;;;;;;;6.93;4.03;;;-1.90;99.90;;;;;;5050100;28;20493;-60
2023/01/20 00:43:41;;;;;;;4.67;3.33;;;-1.90;99.90;;;;;;5042457;28;20181;-60
2023/01/20 00:46:07;;;;;;;3.30;3.00;;;-1.90;99.90;;;;;;5037978;28;20499;-60
2023/01/20 00:48:33;;;;;;;5.00;3.17;;;-1.90;99.90;;;;;;5046842;28;20525;-59
2023/01/20 00:51:00;;;;;;;5.77;3.70;;;-1.90;99.90;;;;;;5048809;28;20613;-60
2023/01/20 00:53:25;;;;;;;6.80;4.50;;;-1.90;99.90;;;;;;5046937;28;20423;-60
2023/01/20 00:55:51;;;;;;;6.40;4.33;;;-1.90;99.90;;;;;;5041897;28;20454;-60
2023/01/20 00:58:17;;;;;;;6.67;4.40;;;-1.90;99.90;;;;;;5044726;28;20296;-60
2023/01/20 01:00:45;;;;;;;8.13;4.33;;;-1.90;99.90;;;;;;5043799;28;20264;-60
2023/01/20 01:03:10;;;;;;;5.80;4.60;;;-1.90;99.90;;;;;;5037892;28;20671;-60
2023/01/20 01:05:36;;;;;;;8.20;4.90;;;-1.90;99.90;;;;;;5046844;28;20456;-60
2023/01/20 01:08:02;;;;;;;8.70;5.13;;;-1.90;99.90;;;;;;5044967;28;20208;-61
2023/01/20 01:10:28;;;;;;;6.57;4.43;;;-1.90;99.90;;;;;;5047101;28;20204;-59
2023/01/20 01:12:53;;;;;;;6.17;4.23;;;-1.90;99.90;;;;;;5043742;28;20432;-60
2023/01/20 01:15:19;;;;;;;6.53;4.40;;;-1.90;99.90;;;;;;5038129;28;20178;-60
2023/01/20 01:17:45;;;;;;;7.20;4.97;;;-1.80;99.90;;;;;;5038723;28;20208;-60
2023/01/20 01:20:11;;;;;;;7.70;5.20;;;-1.80;99.90;;;;;;5037998;28;20181;-60
2023/01/20 01:22:37;;;;;;;5.97;4.80;;;-1.80;99.90;;;;;;5042720;28;20800;-59
2023/01/20 01:25:02;;;;;;;10.03;5.23;;;-1.80;99.90;;;;;;5047462;28;20526;-60
2023/01/20 01:27:28;;;;;;;7.90;5.70;;;-1.80;99.90;;;;;;5045141;28;20219;-59
2023/01/20 01:29:54;;;;;;;7.87;4.70;;;-1.90;99.90;;;;;;5041813;28;20600;-60
2023/01/20 01:32:20;;;;;;;8.70;4.30;;;-1.90;99.90;;;;;;5041894;28;20179;-60
2023/01/20 01:34:46;;;;;;;9.40;5.20;;;-1.90;99.90;;;;;;5041600;28;20437;-60
2023/01/20 01:37:12;;;;;;;8.63;5.33;;;-1.90;99.90;;;;;;5046210;28;20485;-60
2023/01/20 01:39:37;;;;;;;9.10;5.50;;;-1.90;99.90;;;;;;5042884;28;20176;-60
2023/01/20 01:42:11;;;;;;;9.63;6.33;;;-1.90;99.90;;;;;;5045802;28;20189;-60
2023/01/20 01:44:58;;;;;;;10.80;6.00;;;-1.90;99.90;;;;;;5042354;28;20173;-60
2023/01/20 01:47:24;;;;;;;9.90;5.77;;;-2.00;99.90;;;;;;5036040;28;20838;-60
2023/01/20 01:49:51;;;;;;;10.13;5.77;;;-2.00;99.90;;;;;;5046907;28;20468;-60
2023/01/20 01:52:17;;;;;;;11.43;6.30;;;-2.00;99.90;;;;;;5047172;28;20920;-59
2023/01/20 01:54:44;;;;;;;7.67;5.17;;;-2.00;99.90;;;;;;5047844;28;20438;-60
2023/01/20 01:57:10;;;;;;;8.87;6.07;;;-2.00;99.90;;;;;;5045882;28;20590;-60
2023/01/20 01:59:37;;;;;;;8.80;5.60;;;-2.00;99.90;;;;;;5040399;28;20557;-60
2023/01/20 02:02:03;;;;;;;10.93;7.00;;;-1.90;99.90;;;;;;5036023;28;20489;-60
2023/01/20 02:04:30;;;;;;;7.77;6.30;;;-1.90;99.90;;;;;;5038159;28;20439;-60
2023/01/20 02:07:10;;;;;;;9.70;6.37;;;-1.90;99.90;;;;;;5045126;28;20315;-59
2023/01/20 02:09:36;;;;;;;12.63;6.70;;;-1.90;99.90;;;;;;5040730;28;20466;-58
2023/01/20 02:12:07;;;;;;;12.47;6.73;;;-1.90;99.90;;;;;;5042865;28;20454;-60
2023/01/20 02:14:47;;;;;;;11.37;6.20;;;-1.90;99.90;;;;;;5043175;28;20427;-59
2023/01/20 02:17:20;;;;;;;11.80;5.50;;;-1.90;99.90;;;;;;5045357;28;20537;-60
2023/01/20 02:20:09;;;;;;;12.00;5.83;;;-1.90;99.90;;;;;;5048291;28;20461;-60
2023/01/20 02:22:55;;;;;;;10.63;5.43;;;-2.00;99.90;;;;;;5019782;28;20445;-60
2023/01/20 02:25:55;;;;;;;8.73;5.40;;;-2.00;99.90;;;;;;5048767;28;20431;-60
2023/01/20 02:28:31;;;;;;;9.57;5.20;;;-2.00;99.90;;;;;;5043487;28;20946;-60
2023/01/20 02:31:15;;;;;;;9.50;5.17;;;-2.00;99.90;;;;;;5044617;28;20438;-60
2023/01/20 02:34:01;;;;;;;7.43;5.10;;;-2.00;99.90;;;;;;5042624;28;20952;-60
2023/01/20 02:36:36;;;;;;;9.53;5.63;;;-2.00;99.90;;;;;;5039068;28;20562;-58
2023/01/20 02:39:08;;;;;;;9.57;5.70;;;-2.00;99.90;;;;;;5042125;28;20435;-60
2023/01/20 02:41:51;;;;;;;8.50;5.03;;;-2.00;99.90;;;;;;5047098;28;20430;-60
2023/01/20 02:44:39;;;;;;;8.87;5.50;;;-2.00;99.90;;;;;;5046447;28;20430;-60
2023/01/20 02:47:18;;;;;;;6.93;4.40;;;-2.00;99.90;;;;;;5045997;28;20927;-58
2023/01/20 02:49:58;;;;;;;7.80;4.50;;;-2.00;99.90;;;;;;5047592;28;20994;-59
2023/01/20 02:52:34;;;;;;;7.50;3.73;;;-2.00;99.90;;;;;;5040475;28;20510;-58
2023/01/20 02:55:07;;;;;;;6.60;3.60;;;-2.10;99.90;;;;;;5041983;28;20470;-58
2023/01/20 02:57:46;;;;;;;6.40;3.60;;;-2.10;99.90;;;;;;5046917;28;20450;-58
2023/01/20 03:00:38;;;;;;;6.13;3.63;;;-2.10;99.90;;;;;;5048276;28;20449;-59
2023/01/20 03:03:09;;;;;;;3.43;3.13;;;-2.10;99.90;;;;;;5040902;28;20439;-58
2023/01/20 03:05:44;;;;;;;6.67;4.30;;;-2.10;99.90;;;;;;5052386;28;20446;-59
2023/01/20 03:08:13;;;;;;;5.73;3.80;;;-2.10;99.90;;;;;;5045211;28;20526;-58
2023/01/20 03:10:41;;;;;;;5.17;3.80;;;-2.10;99.90;;;;;;5042292;28;20474;-59
2023/01/20 03:13:31;;;;;;;11.30;4.80;;;-2.00;99.90;;;;;;5045672;28;20540;-59
2023/01/20 03:16:01;;;;;;;7.10;5.30;;;-2.00;99.90;;;;;;5044809;28;20827;-59
2023/01/20 03:18:33;;;;;;;8.77;5.13;;;-2.00;99.90;;;;;;5033481;28;20431;-60
2023/01/20 03:21:01;;;;;;;7.03;4.03;;;-2.00;99.90;;;;;;5049321;28;20407;-59
2023/01/20 03:23:29;;;;;;;3.77;2.90;;;-2.10;99.90;;;;;;5041918;28;20436;-59
2023/01/20 03:25:56;;;;;;;3.60;2.50;;;-2.10;99.90;;;;;;5046549;28;20582;-60
2023/01/20 03:28:22;;;;;;;2.23;1.90;;;-2.10;99.90;;;;;;5042086;28;20431;-59
2023/01/20 03:30:48;;;;;;;3.57;2.00;;;-2.10;99.90;;;;;;5045645;28;20450;-59
2023/01/20 03:33:15;;;;;;;2.27;2.07;;;-2.10;99.90;;;;;;5048165;28;20235;-59
2023/01/20 03:35:41;;;;;;;2.47;1.93;;;-2.20;99.90;;;;;;5046275;28;20250;-59
2023/01/20 03:38:08;;;;;;;2.20;2.00;;;-2.20;99.90;;;;;;5048696;28;20916;-58
2023/01/20 03:40:59;;;;;;;2.47;1.90;;;-2.20;99.90;;;;;;5047355;28;20436;-59
2023/01/20 03:44:14;;;;;;;1.60;1.50;;;-2.20;99.90;;;;;;5040451;28;20432;-60
2023/01/20 03:47:39;;;;;;;2.47;1.83;;;-2.20;99.90;;;;;;5002015;28;20545;-59
2023/01/20 03:50:16;;;;;;;2.30;2.00;;;-2.20;99.90;;;;;;5037884;28;20552;-59
2023/01/20 03:53:00;;;;;;;2.00;1.67;;;-2.20;99.90;;;;;;5048804;28;20430;-60
2023/01/20 03:55:37;;;;;;;2.53;2.07;;;-2.10;99.90;;;;;;5046855;28;20505;-59
2023/01/20 03:58:10;;;;;;;2.13;1.93;;;-2.10;99.90;;;;;;5048702;28;20545;-59
2023/01/20 04:00:40;;;;;;;3.53;2.57;;;-2.10;99.90;;;;;;5048134;28;20495;-58
2023/01/20 04:03:10;;;;;;;2.50;2.30;;;-2.10;99.90;;;;;;5041688;28;20462;-59
2023/01/20 04:05:39;;;;;;;3.37;2.50;;;-2.10;99.90;;;;;;5040601;28;20451;-59
2023/01/20 04:08:08;;;;;;;3.00;2.60;;;-2.10;99.90;;;;;;5048033;28;20450;-59
2023/01/20 04:10:37;;;;;;;2.67;2.47;;;-2.10;99.90;;;;;;5049245;28;20458;-58
2023/01/20 04:13:03;;;;;;;2.17;2.03;;;-2.10;99.90;;;;;;5047260;28;20435;-60
2023/01/20 04:15:33;;;;;;;1.63;1.53;;;-2.10;99.90;;;;;;5048010;28;20524;-59
2023/01/20 04:18:21;;;;;;;1.93;1.83;;;-2.10;99.90;;;;;;5047357;28;20611;-59
2023/01/20 04:21:01;;;;;;;2.77;1.73;;;-2.10;99.90;;;;;;5038687;28;20438;-59
2023/01/20 04:23:35;;;;;;;3.30;2.70;;;-2.10;99.90;;;;;;5041116;28;20435;-58
2023/01/20 04:26:01;;;;;;;3.60;2.87;;;-2.00;99.90;;;;;;5043587;28;20454;-61
2023/01/20 04:28:27;;;;;;;3.13;2.63;;;-2.00;99.90;;;;;;5046565;28;20431;-58
2023/01/20 04:30:52;;;;;;;3.80;3.27;;;-2.00;99.90;;;;;;5046271;28;20173;-58
2023/01/20 04:33:18;;;;;;;3.80;2.60;;;-2.00;99.90;;;;;;5043697;28;20207;-58
2023/01/20 04:35:44;;;;;;;3.53;3.17;;;-2.00;99.90;;;;;;5045129;28;20611;-59
2023/01/20 04:38:09;;;;;;;2.57;2.37;;;-2.00;99.90;;;;;;5047023;28;20157;-59
2023/01/20 04:40:35;;;;;;;2.70;2.20;;;-2.00;99.90;;;;;;5046143;28;20201;-59
2023/01/20 04:43:00;;;;;;;4.57;1.87;;;-2.00;99.90;;;;;;5046835;28;20176;-59
2023/01/20 04:45:26;;;;;;;2.90;2.30;;;-2.00;99.90;;;;;;5041311;28;20197;-59
2023/01/20 04:47:52;;;;;;;2.70;2.00;;;-2.00;99.90;;;;;;5040118;28;20261;-59
2023/01/20 04:50:17;;;;;;;20.40;8.37;;;-2.00;99.90;;;;;;5048108;28;20209;-59
2023/01/20 04:52:43;;;;;;;18.17;7.70;;;-2.00;99.90;;;;;;5047732;28;20173;-59
2023/01/20 04:55:10;;;;;;;11.10;4.90;;;-2.00;99.90;;;;;;5035628;28;20320;-58
2023/01/20 04:57:35;;;;;;;7.30;4.30;;;-2.00;99.90;;;;;;5038599;28;20547;-60
2023/01/20 05:00:01;;;;;;;13.00;4.30;;;-2.10;99.90;;;;;;5039017;28;20455;-59
2023/01/20 05:02:26;;;;;;;8.47;4.17;;;-2.00;99.90;;;;;;5045238;28;20625;-59
2023/01/20 05:04:52;;;;;;;6.53;3.43;;;-2.10;99.90;;;;;;5033920;28;20710;-60
2023/01/20 05:07:18;;;;;;;8.20;3.03;;;-2.10;99.90;;;;;;5047986;28;20256;-59
2023/01/20 05:09:43;;;;;;;3.33;2.77;;;-2.20;99.90;;;;;;5038743;28;20205;-59
2023/01/20 05:12:09;;;;;;;2.60;2.40;;;-2.20;99.90;;;;;;5035564;28;20205;-59
2023/01/20 05:14:34;;;;;;;2.30;2.10;;;-2.30;99.90;;;;;;5033184;28;20231;-59
2023/01/20 05:17:00;;;;;;;5.37;3.37;;;-2.40;99.90;;;;;;5037260;28;20259;-59
2023/01/20 05:19:26;;;;;;;2.70;2.13;;;-2.50;99.90;;;;;;5035604;28;20189;-58
2023/01/20 05:21:51;;;;;;;3.80;1.70;;;-2.50;99.90;;;;;;5043604;28;20189;-59
2023/01/20 05:24:17;;;;;;;1.70;1.60;;;-2.60;99.90;;;;;;5037986;28;20200;-58
2023/01/20 05:26:42;;;;;;;1.40;1.30;;;-2.70;99.90;;;;;;5034262;28;20204;-59
2023/01/20 05:29:08;;;;;;;2.27;1.83;;;-2.70;99.90;;;;;;5033060;28;20209;-59
2023/01/20 05:31:33;;;;;;;1.90;1.80;;;-2.70;99.90;;;;;;5040591;28;20177;-57
2023/01/20 05:33:59;;;;;;;1.87;1.70;;;-2.70;99.90;;;;;;5037986;28;20192;-58
2023/01/20 05:36:27;;;;;;;2.47;2.37;;;-2.80;99.90;;;;;;5030817;28;20528;-58
2023/01/20 05:38:53;;;;;;;3.20;2.30;;;-2.80;99.90;;;;;;5035712;28;20184;-60
2023/01/20 05:41:19;;;;;;;3.23;2.27;;;-2.80;99.90;;;;;;5037699;28;20451;-59
2023/01/20 05:43:44;;;;;;;6.27;3.07;;;-2.80;99.90;;;;;;5043736;28;20423;-59
2023/01/20 05:46:10;;;;;;;3.10;2.80;;;-2.80;99.90;;;;;;5043800;28;20904;-60
2023/01/20 05:48:36;;;;;;;7.30;4.80;;;-2.80;99.90;;;;;;5034840;28;20197;-54
2023/01/20 05:51:01;;;;;;;7.00;4.57;;;-2.80;99.90;;;;;;5037605;28;20173;-58
2023/01/20 05:53:27;;;;;;;6.73;4.60;;;-2.80;99.90;;;;;;5042962;28;20223;-59
2023/01/20 05:56:04;;;;;;;13.00;5.57;;;-2.80;99.90;;;;;;5045600;28;20232;-59
2023/01/20 05:58:30;;;;;;;8.87;5.80;;;-2.80;99.90;;;;;;5051051;28;20169;-59
2023/01/20 06:01:07;;;;;;;9.77;5.67;;;-2.90;99.90;;;;;;5039768;28;20427;-58
2023/01/20 06:03:33;;;;;;;11.53;5.30;;;-2.90;99.90;;;;;;5041683;28;20449;-60
2023/01/20 06:06:07;;;;;;;10.27;5.87;;;-2.90;99.90;;;;;;5033946;28;20508;-60
2023/01/20 06:08:34;;;;;;;11.30;5.93;;;-2.90;99.90;;;;;;5047604;28;20478;-58
2023/01/20 06:11:00;;;;;;;12.53;6.27;;;-2.90;99.90;;;;;;5040325;28;20548;-60
2023/01/20 06:13:25;;;;;;;12.60;5.80;;;-2.90;99.90;;;;;;5050559;28;20869;-59
2023/01/20 06:15:52;;;;;;;11.43;5.53;;;-2.90;99.90;;;;;;5047749;28;20461;-60
2023/01/20 06:18:18;;;;;;;10.03;5.27;;;-2.90;99.90;;;;;;5036906;28;20206;-61
2023/01/20 06:20:44;;;;;;;7.13;4.57;;;-2.90;99.90;;;;;;5048928;28;20526;-60
2023/01/20 06:23:10;;;;;;;6.90;5.10;;;-2.90;99.90;;;;;;5045470;28;20887;-60
2023/01/20 06:25:35;;;;;;;8.60;4.87;;;-2.90;99.90;;;;;;5035422;28;20239;-59
2023/01/20 06:28:01;;;;;;;12.17;6.57;;;-2.90;99.90;;;;;;5040924;28;20176;-60
2023/01/20 06:30:27;;;;;;;11.77;7.33;;;-2.90;99.90;;;;;;5039993;28;20727;-60
2023/01/20 06:32:53;;;;;;;16.93;9.60;;;-2.90;99.90;;;;;;5039150;28;20434;-60
2023/01/20 06:35:19;;;;;;;16.83;9.33;;;-2.90;99.90;;;;;;5045355;28;20261;-61
2023/01/20 06:37:45;;;;;;;15.33;8.17;;;-2.80;99.90;;;;;;5048056;28;20453;-60
2023/01/20 06:40:11;;;;;;;19.40;11.13;;;-2.90;99.90;;;;;;5042776;28;20695;-60
2023/01/20 06:42:37;;;;;;;61.30;23.90;;;-2.80;99.90;;;;;;5041228;28;20180;-60
2023/01/20 06:45:02;;;;;;;43.00;18.83;;;-2.80;99.90;;;;;;5039050;28;20443;-61
2023/01/20 06:47:28;;;;;;;21.70;11.53;;;-2.80;99.90;;;;;;5034437;28;20276;-60
2023/01/20 06:49:54;;;;;;;26.67;13.00;;;-2.80;99.90;;;;;;5044791;28;20971;-60
2023/01/20 06:52:19;;;;;;;27.37;11.30;;;-2.80;99.90;;;;;;5046156;28;20255;-60
2023/01/20 06:54:45;;;;;;;18.93;10.93;;;-2.70;99.90;;;;;;5046923;28;20174;-59
2023/01/20 06:57:10;;;;;;;21.27;9.43;;;-2.70;99.90;;;;;;5044268;28;20231;-60
2023/01/20 06:59:36;;;;;;;22.60;10.00;;;-2.80;99.90;;;;;;5042301;28;20179;-60
2023/01/20 07:02:01;;;;;;;16.10;8.10;;;-2.70;99.90;;;;;;5035994;28;20670;-60
2023/01/20 07:04:27;;;;;;;16.63;7.37;;;-2.70;99.90;;;;;;5041233;28;20173;-58
2023/01/20 07:06:53;;;;;;;8.43;4.80;;;-2.70;99.90;;;;;;5049567;28;20622;-59
2023/01/20 07:09:18;;;;;;;7.00;4.37;;;-2.80;99.90;;;;;;5040119;28;20684;-58
2023/01/20 07:11:44;;;;;;;10.60;5.63;;;-2.80;99.90;;;;;;5044231;28;20180;-60
2023/01/20 07:14:09;;;;;;;10.47;5.33;;;-2.90;99.90;;;;;;5037357;28;20184;-60
2023/01/20 07:16:35;;;;;;;7.10;5.03;;;-2.90;99.90;;;;;;5042931;28;20204;-60
2023/01/20 07:19:01;;;;;;;7.80;5.07;;;-3.00;99.90;;;;;;5025120;28;20189;-60
2023/01/20 07:21:27;;;;;;;14.80;5.00;;;-3.00;99.90;;;;;;5043484;28;20431;-59
2023/01/20 07:23:52;;;;;;;8.40;5.20;;;-3.00;99.90;;;;;;5046006;28;20180;-59
2023/01/20 07:26:21;;;;;;;7.10;5.47;;;-3.00;99.90;;;;;;5037537;28;20469;-60
2023/01/20 07:28:47;;;;;;;12.33;6.27;;;-3.00;99.90;;;;;;5036532;28;20701;-60
2023/01/20 07:31:19;;;;;;;12.43;7.07;;;-3.00;99.90;;;;;;5032197;28;20962;-60
2023/01/20 07:33:45;;;;;;;13.03;7.33;;;-3.00;99.90;;;;;;5036341;28;20523;-59
2023/01/20 07:36:12;;;;;;;10.30;6.90;;;-2.90;99.90;;;;;;5031643;28;21083;-59
2023/01/20 07:38:38;;;;;;;10.23;6.90;;;-2.90;99.90;;;;;;5035704;28;20440;-60
2023/01/20 07:41:06;;;;;;;11.63;7.00;;;-2.80;99.90;;;;;;5033185;28;20492;-60
2023/01/20 07:43:32;;;;;;;15.13;8.23;;;-2.80;99.90;;;;;;5037973;28;20186;-60
2023/01/20 07:45:59;;;;;;;22.13;12.57;;;-2.80;99.90;;;;;;5032842;28;20475;-59
2023/01/20 07:48:25;;;;;;;15.93;9.90;;;-2.80;99.90;;;;;;5033184;28;20445;-60
2023/01/20 07:51:04;;;;;;;20.00;9.83;;;-2.70;99.90;;;;;;5037256;28;20471;-61
2023/01/20 07:53:31;;;;;;;12.87;6.53;;;-2.70;99.90;;;;;;5041169;28;20433;-60
2023/01/20 07:56:23;;;;;;;10.40;6.30;;;-2.60;99.90;;;;;;5039498;28;20447;-60
2023/01/20 07:58:50;;;;;;;9.07;5.87;;;-2.60;99.90;;;;;;5027300;28;20948;-60
2023/01/20 08:01:24;;;;;;;7.90;5.97;;;-2.60;99.90;;;;;;5033873;28;20994;-61
2023/01/20 08:03:50;;;;;;;11.70;6.83;;;-2.60;99.90;;;;;;5046185;28;20418;-61
2023/01/20 08:06:19;;;;;;;8.60;5.73;;;-2.60;99.90;;;;;;5043390;28;20509;-60
2023/01/20 08:08:45;;;;;;;8.70;5.30;;;-2.60;99.90;;;;;;5041595;28;20481;-59
2023/01/20 08:11:12;;;;;;;8.90;5.70;;;-2.60;99.90;;;;;;5041082;28;20431;-61
2023/01/20 08:13:39;;;;;;;9.37;6.20;;;-2.60;99.90;;;;;;5044426;28;20423;-61
2023/01/20 08:16:07;;;;;;;9.87;5.00;;;-2.60;99.90;;;;;;5039391;28;20503;-60
2023/01/20 08:18:34;;;;;;;7.23;5.20;;;-2.50;99.90;;;;;;5046299;28;20435;-61
2023/01/20 08:21:05;;;;;;;12.90;6.37;;;-2.50;99.90;;;;;;5039220;28;20444;-61
2023/01/20 08:23:31;;;;;;;8.83;5.80;;;-2.40;99.90;;;;;;5044152;28;20436;-61
2023/01/20 08:26:01;;;;;;;11.20;5.70;;;-2.40;99.90;;;;;;5043290;28;20461;-61
2023/01/20 08:28:28;;;;;;;15.90;7.37;;;-2.40;99.90;;;;;;5043577;28;20429;-61
2023/01/20 08:30:54;;;;;;;11.80;6.73;;;-2.30;99.90;;;;;;5028697;28;20470;-60
2023/01/20 08:33:20;;;;;;;10.27;7.03;;;-2.20;99.90;;;;;;5048073;28;20469;-61
2023/01/20 08:35:46;;;;;;;20.67;9.53;;;-2.20;99.90;;;;;;5038610;28;21024;-61
2023/01/20 08:38:12;;;;;;;13.87;7.73;;;-2.20;99.90;;;;;;5052214;28;20258;-61
2023/01/20 08:40:40;;;;;;;12.10;5.80;;;-2.20;99.90;;;;;;5044231;28;20547;-62
2023/01/20 08:43:06;;;;;;;12.83;7.47;;;-2.20;99.90;;;;;;5051748;28;20188;-61
2023/01/20 08:45:32;;;;;;;10.93;6.23;;;-2.20;99.90;;;;;;5041294;28;20451;-61
2023/01/20 08:47:58;;;;;;;12.70;7.37;;;-2.20;99.90;;;;;;5048329;28;20177;-61
2023/01/20 08:50:24;;;;;;;13.93;8.87;;;-2.20;99.90;;;;;;5042417;28;20203;-61
2023/01/20 08:52:49;;;;;;;16.97;9.87;;;-2.10;99.90;;;;;;5043935;28;20235;-60
2023/01/20 08:55:15;;;;;;;14.83;9.03;;;-2.10;99.90;;;;;;5038274;28;20414;-60
2023/01/20 08:57:41;;;;;;;14.70;10.07;;;-2.00;99.90;;;;;;5045942;28;20185;-60
2023/01/20 09:00:09;;;;;;;18.17;10.60;;;-1.90;99.90;;;;;;5037003;28;20176;-60
2023/01/20 09:02:36;;;;;;;22.40;11.60;;;-1.80;99.90;;;;;;5043012;28;20196;-61
2023/01/20 09:05:03;;;;;;;17.43;9.20;;;-1.80;99.90;;;;;;5036598;28;21217;-59
2023/01/20 09:07:29;;;;;;;18.17;8.83;;;-1.70;99.90;;;;;;5037759;28;20545;-59
2023/01/20 09:09:54;;;;;;;16.80;9.97;;;-1.60;99.90;;;;;;5049087;28;20443;-59
2023/01/20 09:12:20;;;;;;;21.43;9.70;;;-1.60;99.90;;;;;;5043837;28;20430;-59
2023/01/20 09:14:46;;;;;;;16.20;9.30;;;-1.60;99.90;;;;;;5039499;28;20797;-60
2023/01/20 09:17:13;;;;;;;15.67;8.80;;;-1.60;99.90;;;;;;5043675;28;20637;-59
2023/01/20 09:19:39;;;;;;;21.47;11.60;;;-1.70;99.90;;;;;;5035687;28;20372;-61
2023/01/20 09:22:04;;;;;;;15.90;10.93;;;-1.70;99.90;;;;;;5043796;28;20544;-59
2023/01/20 09:24:30;;;;;;;27.83;13.13;;;-1.70;99.90;;;;;;5048722;28;20661;-59
2023/01/20 09:26:56;;;;;;;20.43;10.83;;;-1.70;99.90;;;;;;5046026;28;20203;-59
2023/01/20 09:29:22;;;;;;;23.80;12.57;;;-1.60;99.90;;;;;;5047321;28;20463;-59
2023/01/20 09:31:51;;;;;;;25.20;12.63;;;-1.50;99.90;;;;;;5047930;28;20802;-60
2023/01/20 09:34:23;;;;;;;28.87;14.10;;;-1.40;99.90;;;;;;5045113;28;20432;-60
2023/01/20 09:36:53;;;;;;;22.53;13.70;;;-1.40;99.90;;;;;;5048610;28;20477;-60
2023/01/20 09:45:21;;;;;;;25.90;15.87;;;-1.10;99.90;;;;;;5040042;28;20426;-60
2023/01/20 09:47:48;;;;;;;31.67;16.33;;;-1.10;99.90;;;;;;5043680;28;20801;-61
2023/01/20 09:53:37;;;;;;;34.90;17.80;;;-0.90;99.90;;;;;;5049424;28;20421;-60
2023/01/20 09:56:10;;;;;;;37.63;19.30;;;-0.90;99.90;;;;;;5051198;28;20443;-59
2023/01/20 09:59:00;;;;;;;33.30;18.30;;;-0.80;99.90;;;;;;5046346;28;20419;-60
2023/01/20 10:01:55;;;;;;;35.43;17.57;;;-0.80;99.90;;;;;;5043381;28;20435;-60
2023/01/20 10:04:38;;;;;;;31.40;18.10;;;-0.70;99.90;;;;;;5050421;28;20631;-60
2023/01/20 10:07:16;;;;;;;31.70;17.37;;;-0.60;99.90;;;;;;5047000;28;20447;-61
2023/01/20 10:09:45;;;;;;;41.30;22.40;;;-0.50;99.90;;;;;;5049508;28;20456;-60
2023/01/20 10:12:33;;;;;;;34.77;17.90;;;-0.50;99.90;;;;;;5041891;28;20486;-58
2023/01/20 10:15:18;;;;;;;37.80;19.67;;;-0.40;99.90;;;;;;5049396;28;20431;-59
2023/01/20 10:17:53;;;;;;;32.80;18.27;;;-0.40;99.90;;;;;;5046178;28;20430;-60
2023/01/20 10:20:38;;;;;;;33.30;17.10;;;-0.30;99.90;;;;;;5048185;28;20442;-59
2023/01/20 10:23:20;;;;;;;30.27;16.67;;;-0.20;99.90;;;;;;5048413;28;20415;-60
2023/01/20 10:25:56;;;;;;;28.17;13.93;;;-0.10;99.90;;;;;;5051412;28;20450;-59
2023/01/20 10:28:31;;;;;;;19.43;11.10;;;0.00;99.90;;;;;;5044407;28;20506;-60
2023/01/20 10:30:59;;;;;;;21.60;11.77;;;0.10;99.90;;;;;;5047779;28;20813;-59
2023/01/20 10:33:28;;;;;;;23.20;11.83;;;0.20;99.90;;;;;;5047218;28;20415;-59
2023/01/20 10:35:55;;;;;;;16.40;10.27;;;0.20;99.90;;;;;;5047518;28;20463;-59
2023/01/20 10:39:18;;;;;;;20.67;12.47;;;0.20;99.90;;;;;;5040916;28;20432;-60
2023/01/20 10:41:51;;;;;;;21.87;12.40;;;0.10;99.90;;;;;;4986210;28;21343;-59
2023/01/20 10:44:17;;;;;;;23.90;11.27;;;0.10;99.90;;;;;;4998077;28;20469;-60
2023/01/20 10:47:18;;;;;;;20.80;11.20;;;0.20;99.90;;;;;;5028745;28;20483;-60
2023/01/20 10:49:55;;;;;;;17.87;10.40;;;0.20;99.90;;;;;;5046555;28;20227;-60
2023/01/20 10:52:33;;;;;;;17.93;8.43;;;0.20;99.90;;;;;;5043663;28;20579;-60
2023/01/20 10:55:05;;;;;;;22.67;10.50;;;0.30;99.90;;;;;;5035969;28;20536;-59
2023/01/20 10:57:31;;;;;;;20.07;9.23;;;0.30;99.90;;;;;;5043364;28;20486;-59
2023/01/20 11:00:05;;;;;;;17.43;9.50;;;0.30;99.90;;;;;;5046631;28;20439;-59
2023/01/20 11:02:34;;;;;;;14.37;7.90;;;0.30;99.90;;;;;;5036844;28;20451;-60
2023/01/20 11:05:10;;;;;;;13.07;8.10;;;0.40;99.90;;;;;;5047300;28;20494;-60
2023/01/20 11:07:36;;;;;;;11.50;7.20;;;0.40;99.90;;;;;;5040912;28;20483;-59
2023/01/20 11:10:25;;;;;;;12.60;7.60;;;0.40;99.90;;;;;;5045780;28;20494;-59
2023/01/20 11:12:55;;;;;;;13.20;7.30;;;0.40;99.90;;;;;;5044067;28;20842;-59
2023/01/20 11:15:25;;;;;;;11.07;6.87;;;0.50;99.90;;;;;;5043223;28;20439;-58
2023/01/20 11:18:13;;;;;;;10.77;6.50;;;0.50;99.90;;;;;;5048560;28;20436;-58
2023/01/20 11:20:59;;;;;;;10.07;6.47;;;0.60;99.80;;;;;;5037770;28;20452;-59
2023/01/20 11:23:37;;;;;;;13.60;7.17;;;0.60;99.10;;;;;;5048909;28;20448;-60
2023/01/20 11:26:08;;;;;;;15.27;7.00;;;0.70;99.00;;;;;;5046192;28;20911;-58
2023/01/20 11:28:48;;;;;;;12.23;7.23;;;0.70;96.90;;;;;;5048205;28;20442;-60
2023/01/20 11:31:15;;;;;;;12.73;6.53;;;0.70;95.90;;;;;;5043832;28;21083;-59
2023/01/20 11:33:54;;;;;;;9.60;7.10;;;0.70;96.50;;;;;;5064942;28;20434;-59
2023/01/20 11:36:22;;;;;;;12.10;7.40;;;0.70;96.80;;;;;;5043344;28;20547;-59
2023/01/20 11:38:50;;;;;;;9.83;6.20;;;0.80;97.30;;;;;;5035138;28;20447;-59
2023/01/20 11:41:22;;;;;;;10.37;6.40;;;0.80;96.60;;;;;;5044431;28;20905;-59
2023/01/20 11:43:50;;;;;;;9.27;5.60;;;0.90;96.30;;;;;;5049914;28;20499;-59
2023/01/20 11:46:25;;;;;;;10.20;5.90;;;0.90;95.60;;;;;;5039310;28;20472;-59
2023/01/20 11:49:05;;;;;;;9.30;6.20;;;1.00;96.00;;;;;;5046855;28;21033;-59
2023/01/20 11:51:31;;;;;;;11.13;5.47;;;1.00;95.90;;;;;;5044711;28;20469;-59
2023/01/20 11:54:11;;;;;;;10.57;5.40;;;1.00;95.90;;;;;;5049795;28;20467;-60
2023/01/20 11:56:45;;;;;;;6.90;4.77;;;1.00;96.10;;;;;;5047372;28;20194;-59
2023/01/20 11:59:20;;;;;;;7.07;5.00;;;1.00;95.50;;;;;;5042011;28;20467;-61
2023/01/20 12:02:09;;;;;;;8.60;5.30;;;1.00;94.40;;;;;;5049084;28;20407;-60
2023/01/20 12:04:46;;;;;;;16.27;6.03;;;0.90;94.20;;;;;;5039758;28;21014;-59
2023/01/20 12:07:21;;;;;;;8.73;6.00;;;0.90;94.90;;;;;;5036737;28;20475;-60
2023/01/20 12:09:52;;;;;;;7.83;5.60;;;0.90;95.20;;;;;;5039392;28;20525;-60
2023/01/20 12:12:27;;;;;;;7.87;5.67;;;0.80;94.90;;;;;;5047929;28;20444;-59
2023/01/20 12:15:16;;;;;;;7.37;5.30;;;0.80;94.70;;;;;;5045405;28;20428;-60
2023/01/20 12:17:42;;;;;;;9.33;6.23;;;0.70;94.70;;;;;;5040679;28;20435;-60
2023/01/20 12:20:41;;;;;;;9.17;5.77;;;0.70;94.70;;;;;;5045896;28;20520;-59
2023/01/20 12:23:13;;;;;;;11.13;5.67;;;0.70;94.80;;;;;;5044615;28;20325;-60
2023/01/20 12:25:55;;;;;;;12.73;5.17;;;0.70;95.00;;;;;;5044517;28;20460;-59
2023/01/20 12:28:37;;;;;;;10.00;6.43;;;0.70;95.20;;;;;;5035435;28;20441;-60
2023/01/20 12:31:05;;;;;;;8.63;5.23;;;0.70;95.40;;;;;;5043429;28;20468;-61
2023/01/20 12:33:42;;;;;;;8.17;4.47;;;0.70;95.70;;;;;;5035496;28;20444;-60
2023/01/20 12:36:36;;;;;;;6.50;4.40;;;0.70;95.20;;;;;;5042553;28;20455;-59
2023/01/20 12:39:09;;;;;;;6.40;4.33;;;0.80;93.00;;;;;;5046405;28;20423;-60
2023/01/20 12:42:04;;;;;;;7.87;4.90;;;0.80;92.20;;;;;;5041919;28;20440;-62
2023/01/20 12:44:48;;;;;;;8.40;5.00;;;0.90;91.30;;;;;;5040151;28;20431;-60
2023/01/20 12:47:31;;;;;;;8.40;4.40;;;1.00;91.60;;;;;;5040055;28;20814;-59
2023/01/20 12:50:16;;;;;;;6.93;3.80;;;1.10;85.30;;;;;;5036615;28;20507;-61
2023/01/20 12:52:50;;;;;;;5.00;3.90;;;1.20;81.70;;;;;;5037479;28;20441;-60
2023/01/20 12:55:28;;;;;;;7.33;3.80;;;1.20;80.80;;;;;;5044539;28;20433;-59
2023/01/20 12:58:02;;;;;;;5.00;3.70;;;1.20;76.90;;;;;;5041994;28;20477;-62
2023/01/20 13:00:42;;;;;;;3.80;3.20;;;1.10;76.50;;;;;;5039755;28;20866;-60
2023/01/20 13:03:17;;;;;;;6.37;3.33;;;1.00;76.10;;;;;;5039521;28;20465;-60
2023/01/20 13:06:20;;;;;;;9.67;3.90;;;1.00;75.60;;;;;;5034561;28;20456;-60
2023/01/20 13:09:19;;;;;;;10.43;4.50;;;0.80;77.60;;;;;;5040972;28;20429;-59
2023/01/20 13:12:08;;;;;;;6.93;4.80;;;0.70;79.50;;;;;;5042848;28;20535;-60
2023/01/20 13:14:42;;;;;;;7.30;4.27;;;0.60;80.80;;;;;;5043452;28;20442;-61